CheckWX is a tool to help pilots better visualize weather data.  It is not intended as a substitute for an official pre-flight weather briefing.

10:17:44 UTC

KBHB TAF
Hancock County-Bar Harbor Airport
Bar Harbor, Maine, USA
KBHB 190937Z 1910/2006 VRB02KT 2SM -SHRA BR VV003 FM191200 17005KT 5SM -SHRA BR OVC008 FM191500 17005KT P6SM OVC018 FM191800 20007KT P6SM BKN030 FM200000 21006KT P6SM VCSH BKN015 FM200200 23005KT P6SM BKN007 FM200430 24005KT P6SM SCT015

Aug-19@
10:00 UTC

Aug-19 @ 10:00 UTC

Aug-19@
12:00 UTC

Aug-19 @ 12:00 UTC

KBHB 190937Z 1910/2006 VRB02KT 2SM -SHRA BR VV003
Wind
  • Variable at 2 KTS
Conditions
Light Rain, Mist
Cloud Levels
  • Vertical visibility at 300' AGL

Aug-19@
12:00 UTC

Aug-19 @ 12:00 UTC

Aug-19@
15:00 UTC

Aug-19 @ 15:00 UTC

FM191200 17005KT 5SM -SHRA BR OVC008

From

From Standard forecast or significant change

Wind
  • 170° at 5 KTS
Conditions
Light Rain, Mist
Cloud Levels
  • Overcast at 800' AGL

Aug-19@
15:00 UTC

Aug-19 @ 15:00 UTC

Aug-19@
18:00 UTC

Aug-19 @ 18:00 UTC

FM191500 17005KT P6SM OVC018

From

From Standard forecast or significant change

Wind
  • 170° at 5 KTS
Cloud Levels
  • Overcast at 1,800' AGL

Aug-19@
18:00 UTC

Aug-19 @ 18:00 UTC

Aug-20@
00:00 UTC

Aug-20 @ 00:00 UTC

FM191800 20007KT P6SM BKN030

From

From Standard forecast or significant change

Wind
  • 200° at 7 KTS
Cloud Levels
  • Broken at 3,000' AGL

Aug-20@
00:00 UTC

Aug-20 @ 00:00 UTC

Aug-20@
02:00 UTC

Aug-20 @ 02:00 UTC

FM200000 21006KT P6SM VCSH BKN015

From

From Standard forecast or significant change

Wind
  • 210° at 6 KTS
Cloud Levels
  • Broken at 1,500' AGL

Aug-20@
02:00 UTC

Aug-20 @ 02:00 UTC

Aug-20@
04:30 UTC

Aug-20 @ 04:30 UTC

FM200200 23005KT P6SM BKN007

From

From Standard forecast or significant change

Wind
  • 230° at 5 KTS
Cloud Levels
  • Broken at 700' AGL

Aug-20@
04:30 UTC

Aug-20 @ 04:30 UTC

Aug-20@
06:00 UTC

Aug-20 @ 06:00 UTC

FM200430 24005KT P6SM SCT015

From

From Standard forecast or significant change

Wind
  • 240° at 5 KTS
Cloud Levels
  • Scattered at 1,500' AGL